Time;durP1;ratioP1;P1;durP2;ratioP2;P2;SDS_P1;SDS_P2;PMS_P1;PMS_P2;Temp;Humidity;BMP_temperature;BMP_pressure;BME280_temperature;BME280_humidity;BME280_pressure;Samples;Min_cycle;Max_cycle;Signal;HPM_P1;HPM_P2
2021/06/23 00:01:34;;;;;;;1.80;1.70;;;13.60;99.90;;;;;;4995731;28;20183;-83
2021/06/23 00:04:00;;;;;;;3.30;2.23;;;13.70;99.90;;;;;;5029838;28;20229;-85
2021/06/23 00:06:26;;;;;;;1.87;1.77;;;13.80;99.90;;;;;;5026800;28;20216;-85
2021/06/23 00:08:52;;;;;;;2.67;2.47;;;13.70;99.90;;;;;;4996409;28;20566;-86
2021/06/23 00:11:19;;;;;;;3.03;2.37;;;13.70;99.90;;;;;;5012347;28;20240;-83
2021/06/23 00:13:45;;;;;;;5.87;2.00;;;13.80;99.90;;;;;;5009884;28;20197;-85
2021/06/23 00:16:12;;;;;;;1.80;1.70;;;13.70;99.90;;;;;;5011961;28;20223;-84
2021/06/23 00:18:38;;;;;;;4.23;2.90;;;13.70;99.90;;;;;;5012846;28;20227;-84
2021/06/23 00:21:04;;;;;;;7.93;1.83;;;13.70;99.90;;;;;;5015729;28;20227;-85
2021/06/23 00:23:30;;;;;;;5.50;2.10;;;13.60;99.90;;;;;;5031087;28;20219;-85
2021/06/23 00:25:57;;;;;;;1.87;1.50;;;13.60;99.90;;;;;;5017243;28;20719;-85
2021/06/23 00:28:23;;;;;;;1.57;1.47;;;13.60;99.90;;;;;;5013426;28;20728;-84
2021/06/23 00:30:48;;;;;;;2.37;1.80;;;13.60;99.90;;;;;;4982630;28;20269;-84
2021/06/23 00:33:18;;;;;;;7.03;1.60;;;13.60;99.90;;;;;;5016127;28;20214;-87
2021/06/23 00:35:44;;;;;;;2.80;1.40;;;13.60;99.90;;;;;;5030491;28;20273;-85
2021/06/23 00:38:12;;;;;;;3.17;1.50;;;13.60;99.90;;;;;;5016202;28;20679;-86
2021/06/23 00:40:37;;;;;;;5.30;1.40;;;13.60;99.90;;;;;;5011396;28;20247;-86
2021/06/23 00:43:04;;;;;;;1.37;1.03;;;13.60;99.90;;;;;;5014333;28;20649;-85
2021/06/23 00:45:30;;;;;;;3.63;1.93;;;13.70;99.90;;;;;;5013454;28;20735;-84
2021/06/23 00:47:57;;;;;;;3.10;1.43;;;13.70;99.90;;;;;;5032156;28;20712;-85
2021/06/23 00:50:24;;;;;;;2.17;1.43;;;13.70;99.90;;;;;;5014524;28;20903;-85
2021/06/23 00:52:52;;;;;;;8.53;1.53;;;13.70;99.90;;;;;;5014653;28;20249;-84
2021/06/23 00:55:22;;;;;;;5.13;1.30;;;13.70;99.90;;;;;;5030020;28;20218;-86
2021/06/23 00:57:50;;;;;;;1.33;1.23;;;13.70;99.90;;;;;;5015808;28;20222;-85
2021/06/23 01:00:19;;;;;;;1.70;1.40;;;13.70;99.90;;;;;;5012358;28;20221;-85
2021/06/23 01:02:47;;;;;;;3.93;1.67;;;13.70;99.90;;;;;;5027179;28;20219;-85
2021/06/23 01:05:14;;;;;;;4.53;1.40;;;13.70;99.90;;;;;;5010036;28;20198;-86
2021/06/23 01:07:39;;;;;;;2.17;1.53;;;13.70;99.90;;;;;;5012178;28;20197;-86
2021/06/23 01:10:05;;;;;;;6.00;2.00;;;13.70;99.90;;;;;;5010203;28;20211;-85
2021/06/23 01:12:41;;;;;;;7.17;1.50;;;13.60;99.90;;;;;;5030355;28;20219;-85
2021/06/23 01:15:07;;;;;;;2.10;1.70;;;13.60;99.90;;;;;;5011478;28;20218;-86
2021/06/23 01:17:34;;;;;;;1.60;1.50;;;13.60;99.90;;;;;;5010913;28;20218;-86
2021/06/23 01:20:09;;;;;;;1.33;1.03;;;13.60;99.90;;;;;;5008789;28;20200;-85
2021/06/23 01:22:38;;;;;;;2.10;1.23;;;13.60;99.90;;;;;;5012392;28;20175;-86
2021/06/23 01:25:05;;;;;;;5.40;1.87;;;13.50;99.90;;;;;;5013266;28;20685;-85
2021/06/23 01:27:31;;;;;;;1.27;1.13;;;13.50;99.90;;;;;;5011457;28;20310;-86
2021/06/23 01:29:57;;;;;;;2.97;1.57;;;13.60;99.90;;;;;;5012301;28;20337;-86
2021/06/23 01:32:23;;;;;;;1.60;0.97;;;13.60;99.90;;;;;;5007243;28;20219;-86
2021/06/23 01:34:48;;;;;;;3.40;1.47;;;13.60;99.90;;;;;;4993068;28;20195;-85
2021/06/23 01:37:14;;;;;;;1.93;1.00;;;13.60;99.90;;;;;;4994956;28;20693;-86
2021/06/23 01:39:40;;;;;;;5.07;1.30;;;13.60;99.90;;;;;;4995617;28;20226;-84
2021/06/23 01:42:06;;;;;;;5.00;2.17;;;13.60;99.90;;;;;;5012954;28;20701;-85
2021/06/23 01:44:32;;;;;;;5.67;1.50;;;13.60;99.90;;;;;;5011580;28;20230;-86
2021/06/23 01:46:57;;;;;;;2.20;1.20;;;13.60;99.90;;;;;;5010498;28;20646;-86
2021/06/23 01:49:26;;;;;;;7.37;1.20;;;13.60;99.90;;;;;;5012939;28;20218;-86
2021/06/23 01:51:52;;;;;;;2.10;1.13;;;13.70;99.90;;;;;;5013625;28;20215;-84
2021/06/23 01:54:19;;;;;;;2.03;1.23;;;13.60;99.90;;;;;;4985391;28;20222;-85
2021/06/23 01:56:45;;;;;;;2.93;1.20;;;13.60;99.90;;;;;;5011536;28;20733;-85
2021/06/23 01:59:11;;;;;;;2.50;1.10;;;13.60;99.90;;;;;;5011646;28;20487;-85
2021/06/23 02:01:53;;;;;;;1.73;1.03;;;13.60;99.90;;;;;;5014569;28;20179;-85
2021/06/23 02:04:36;;;;;;;1.43;1.33;;;13.50;99.90;;;;;;5027469;28;20211;-85
2021/06/23 02:07:37;;;;;;;1.53;1.37;;;13.50;99.90;;;;;;5013808;28;20245;-85
2021/06/23 02:10:27;;;;;;;7.47;1.30;;;13.40;99.90;;;;;;5011591;28;20248;-84
2021/06/23 02:13:28;;;;;;;3.70;1.20;;;13.40;99.90;;;;;;5012122;28;20264;-84
2021/06/23 02:15:56;;;;;;;2.87;1.43;;;13.40;99.90;;;;;;5006214;28;20718;-85
2021/06/23 02:18:27;;;;;;;4.70;1.53;;;13.40;99.90;;;;;;5012225;28;20314;-85
2021/06/23 02:20:56;;;;;;;2.20;1.40;;;13.40;99.90;;;;;;5010140;28;21172;-85
2021/06/23 02:23:22;;;;;;;5.80;0.93;;;13.40;99.90;;;;;;5012551;28;20255;-84
2021/06/23 02:25:48;;;;;;;3.30;0.77;;;13.40;99.90;;;;;;4999240;28;20198;-85
2021/06/23 02:28:15;;;;;;;4.33;0.87;;;13.30;99.90;;;;;;5011321;28;20317;-84
2021/06/23 02:30:41;;;;;;;2.73;1.23;;;13.30;99.90;;;;;;5011893;28;20222;-86
2021/06/23 02:33:08;;;;;;;1.57;1.00;;;13.40;99.90;;;;;;4996488;28;20211;-85
2021/06/23 02:35:36;;;;;;;5.83;1.63;;;13.40;99.90;;;;;;5013259;28;20296;-86
2021/06/23 02:38:03;;;;;;;5.23;1.40;;;13.40;99.90;;;;;;4995506;28;20222;-85
2021/06/23 02:40:30;;;;;;;7.63;1.57;;;13.40;99.90;;;;;;5013752;28;20234;-86
2021/06/23 02:42:56;;;;;;;1.17;0.90;;;13.50;99.90;;;;;;5012367;28;20218;-86
2021/06/23 02:45:27;;;;;;;2.73;1.80;;;13.50;99.90;;;;;;5027792;28;20215;-86
2021/06/23 02:47:53;;;;;;;4.77;1.40;;;13.50;99.90;;;;;;5024820;28;20296;-86
2021/06/23 02:50:20;;;;;;;1.30;1.20;;;13.50;99.90;;;;;;4993649;28;20662;-85
2021/06/23 02:52:46;;;;;;;3.20;1.27;;;13.40;99.90;;;;;;5027361;28;20179;-85
2021/06/23 02:55:19;;;;;;;3.63;1.20;;;13.40;99.90;;;;;;5011053;28;20301;-85
2021/06/23 02:57:47;;;;;;;6.63;1.47;;;13.50;99.90;;;;;;5011548;28;21169;-85
2021/06/23 03:00:14;;;;;;;2.10;1.23;;;13.40;99.90;;;;;;5012456;28;20608;-86
2021/06/23 03:02:40;;;;;;;6.77;1.57;;;13.40;99.90;;;;;;5010530;28;20261;-87
2021/06/23 03:05:06;;;;;;;1.53;1.20;;;13.50;99.90;;;;;;5027689;28;20198;-86
2021/06/23 03:07:33;;;;;;;3.40;1.50;;;13.50;99.90;;;;;;4995536;28;20183;-84
2021/06/23 03:10:04;;;;;;;3.93;1.70;;;13.50;99.90;;;;;;4995794;28;20214;-86
2021/06/23 03:12:30;;;;;;;3.40;1.30;;;13.60;99.90;;;;;;5008734;28;20223;-85
2021/06/23 03:14:56;;;;;;;3.67;1.50;;;13.60;99.90;;;;;;5012335;28;20222;-84
2021/06/23 03:17:21;;;;;;;1.90;1.27;;;13.50;99.90;;;;;;5010286;28;21241;-85
2021/06/23 03:19:47;;;;;;;1.87;0.90;;;13.40;99.90;;;;;;5027709;28;20230;-84
2021/06/23 03:22:13;;;;;;;2.57;1.20;;;13.40;99.90;;;;;;5010008;28;20433;-86
2021/06/23 03:24:39;;;;;;;3.20;1.13;;;13.40;99.90;;;;;;5026605;28;20677;-85
2021/06/23 03:27:08;;;;;;;2.47;1.73;;;13.40;99.90;;;;;;4997236;28;20245;-86
2021/06/23 03:29:35;;;;;;;0.70;0.70;;;13.40;99.90;;;;;;5010398;28;20227;-84
2021/06/23 03:32:07;;;;;;;2.30;2.10;;;13.30;99.90;;;;;;5009897;28;20218;-84
2021/06/23 03:34:33;;;;;;;4.47;1.47;;;13.30;99.90;;;;;;5011029;28;20701;-84
2021/06/23 03:36:59;;;;;;;3.07;1.43;;;13.30;99.90;;;;;;5011286;28;20214;-86
2021/06/23 03:39:25;;;;;;;1.33;1.20;;;13.20;99.90;;;;;;5011968;28;20698;-86
2021/06/23 03:41:51;;;;;;;2.60;1.60;;;13.30;99.90;;;;;;5009520;28;20658;-85
2021/06/23 03:44:16;;;;;;;5.23;1.47;;;13.30;99.90;;;;;;5012681;28;20202;-86
2021/06/23 03:46:42;;;;;;;2.23;1.47;;;13.30;99.90;;;;;;4977988;28;20908;-84
2021/06/23 03:49:08;;;;;;;5.20;1.70;;;13.40;99.90;;;;;;5012427;28;20341;-85
2021/06/23 03:51:34;;;;;;;1.73;1.23;;;13.50;99.90;;;;;;5010120;28;20242;-84
2021/06/23 03:54:00;;;;;;;1.53;1.37;;;13.50;99.90;;;;;;4996356;28;20330;-84
2021/06/23 03:56:25;;;;;;;5.10;1.70;;;13.60;99.90;;;;;;5016591;28;20233;-84
2021/06/23 03:58:51;;;;;;;4.13;2.07;;;13.70;99.90;;;;;;5016087;28;20203;-85
2021/06/23 04:01:17;;;;;;;4.13;1.90;;;13.70;99.90;;;;;;4998358;28;20227;-84
2021/06/23 04:03:43;;;;;;;2.87;1.70;;;13.80;99.90;;;;;;5014368;28;20218;-86
2021/06/23 04:06:09;;;;;;;1.73;1.63;;;13.80;99.90;;;;;;5016912;28;20221;-86
2021/06/23 04:08:34;;;;;;;1.63;1.40;;;13.90;99.90;;;;;;5027454;28;20231;-86
2021/06/23 04:11:00;;;;;;;2.70;2.13;;;13.80;99.90;;;;;;5013899;28;21276;-85
2021/06/23 04:13:26;;;;;;;1.53;1.07;;;13.50;99.90;;;;;;5015466;28;20219;-85
2021/06/23 04:15:52;;;;;;;4.60;1.13;;;13.50;99.90;;;;;;5029354;28;21005;-85
2021/06/23 04:18:18;;;;;;;2.53;1.67;;;13.50;99.90;;;;;;4999493;28;20218;-86
2021/06/23 04:20:43;;;;;;;1.70;1.30;;;13.50;99.90;;;;;;5014614;28;20310;-86
2021/06/23 04:23:09;;;;;;;5.60;1.53;;;13.50;99.90;;;;;;5013364;28;20201;-85
2021/06/23 04:25:35;;;;;;;5.93;1.60;;;13.50;99.90;;;;;;4982331;28;20266;-86
2021/06/23 04:28:00;;;;;;;5.17;1.33;;;13.50;99.90;;;;;;5014956;28;20701;-84
2021/06/23 04:30:26;;;;;;;1.73;1.43;;;13.40;99.90;;;;;;4996980;28;20226;-85
2021/06/23 04:32:52;;;;;;;0.83;0.80;;;13.30;99.90;;;;;;5028384;28;20245;-83
2021/06/23 04:35:18;;;;;;;3.13;1.10;;;13.40;99.90;;;;;;5011446;28;20206;-85
2021/06/23 04:37:44;;;;;;;4.13;1.20;;;13.30;99.90;;;;;;5006740;28;20659;-85
2021/06/23 04:40:14;;;;;;;2.43;1.80;;;13.40;99.90;;;;;;5015388;28;20672;-86
2021/06/23 04:42:41;;;;;;;4.90;1.53;;;13.30;99.90;;;;;;5014546;28;20219;-84
2021/06/23 04:45:10;;;;;;;1.43;1.33;;;13.30;99.90;;;;;;5015214;28;20511;-85
2021/06/23 04:47:37;;;;;;;1.80;1.30;;;13.30;99.90;;;;;;5026359;28;20313;-85
2021/06/23 04:50:04;;;;;;;3.20;0.87;;;13.40;99.90;;;;;;4996575;28;20686;-84
2021/06/23 04:52:30;;;;;;;2.30;1.10;;;13.40;99.90;;;;;;5011811;28;20253;-83
2021/06/23 04:54:56;;;;;;;1.53;1.17;;;13.30;99.90;;;;;;5014876;28;20227;-86
2021/06/23 04:57:22;;;;;;;2.63;1.43;;;13.40;99.90;;;;;;5017417;28;20214;-86
2021/06/23 04:59:47;;;;;;;6.40;2.73;;;13.40;99.90;;;;;;4998691;28;20317;-86
2021/06/23 05:02:14;;;;;;;4.33;2.50;;;13.40;99.90;;;;;;5030860;28;20668;-86
2021/06/23 05:04:41;;;;;;;2.20;1.50;;;13.50;99.90;;;;;;5013997;28;20195;-86
2021/06/23 05:07:07;;;;;;;5.00;1.60;;;13.50;99.90;;;;;;5011526;28;20223;-85
2021/06/23 05:09:36;;;;;;;1.97;1.30;;;13.40;99.90;;;;;;5028509;28;20221;-86
2021/06/23 05:12:02;;;;;;;1.73;1.40;;;13.40;99.90;;;;;;5012314;28;20222;-83
2021/06/23 05:14:27;;;;;;;1.70;0.93;;;13.50;99.90;;;;;;5011055;28;20219;-83
2021/06/23 05:16:53;;;;;;;2.10;1.40;;;13.50;99.90;;;;;;5029920;28;20544;-84
2021/06/23 05:19:20;;;;;;;5.27;1.50;;;13.50;99.90;;;;;;5013050;28;20333;-85
2021/06/23 05:21:46;;;;;;;9.03;1.90;;;13.50;99.90;;;;;;4992360;28;20219;-85
2021/06/23 05:24:12;;;;;;;2.30;1.27;;;13.50;99.90;;;;;;5012414;28;20222;-82
2021/06/23 05:26:38;;;;;;;4.63;1.40;;;13.50;99.90;;;;;;4996165;28;20230;-84
2021/06/23 05:29:04;;;;;;;1.57;1.30;;;13.50;99.90;;;;;;5012890;28;20226;-86
2021/06/23 05:31:31;;;;;;;7.07;1.23;;;13.50;99.90;;;;;;5011310;28;20196;-85
2021/06/23 05:33:57;;;;;;;4.50;1.43;;;13.50;99.90;;;;;;4994965;28;21080;-84
2021/06/23 05:36:23;;;;;;;1.60;0.93;;;13.50;99.90;;;;;;5011985;28;20286;-84
2021/06/23 05:38:49;;;;;;;1.63;1.30;;;13.50;99.90;;;;;;4996707;28;20702;-82
2021/06/23 05:41:15;;;;;;;0.97;0.90;;;13.50;99.90;;;;;;5010303;28;20679;-84
2021/06/23 05:43:41;;;;;;;14.17;1.53;;;13.40;99.90;;;;;;5011890;28;20242;-85
2021/06/23 05:46:06;;;;;;;0.83;0.80;;;13.40;99.90;;;;;;4978191;28;20223;-89
2021/06/23 05:48:32;;;;;;;5.13;1.60;;;13.40;99.90;;;;;;4997154;28;20229;-85
2021/06/23 05:50:58;;;;;;;1.47;1.17;;;13.40;99.90;;;;;;5007714;28;20227;-84
2021/06/23 05:53:24;;;;;;;1.07;0.90;;;13.50;99.90;;;;;;5011374;28;20220;-86
2021/06/23 05:55:50;;;;;;;5.93;1.20;;;13.50;99.90;;;;;;5012683;28;20595;-86
2021/06/23 05:58:15;;;;;;;1.10;1.00;;;13.50;99.90;;;;;;5011322;28;20681;-86
2021/06/23 06:00:41;;;;;;;3.20;1.47;;;13.50;99.90;;;;;;5029695;28;20214;-86
2021/06/23 06:03:07;;;;;;;3.20;1.30;;;13.50;99.90;;;;;;5028458;28;20335;-85
2021/06/23 06:05:33;;;;;;;5.10;1.10;;;13.60;99.90;;;;;;5025081;28;20652;-86
2021/06/23 06:07:59;;;;;;;0.97;0.87;;;13.60;99.90;;;;;;5015471;28;20196;-84
2021/06/23 06:10:27;;;;;;;2.00;0.90;;;13.50;99.90;;;;;;5012016;28;20183;-86
2021/06/23 06:12:52;;;;;;;3.37;1.07;;;13.60;99.90;;;;;;5013072;28;20313;-86
2021/06/23 06:15:18;;;;;;;2.87;0.90;;;13.70;99.90;;;;;;4995912;28;20636;-85
2021/06/23 06:17:44;;;;;;;1.80;1.57;;;13.80;99.90;;;;;;5029948;28;20276;-84
2021/06/23 06:20:11;;;;;;;1.60;1.37;;;13.80;99.90;;;;;;5029070;28;20191;-87
2021/06/23 06:22:37;;;;;;;1.97;1.17;;;13.80;99.90;;;;;;5014070;28;20191;-84
2021/06/23 06:25:04;;;;;;;2.17;1.13;;;13.80;99.90;;;;;;5012483;28;20314;-85
2021/06/23 06:27:29;;;;;;;3.97;1.70;;;13.90;99.90;;;;;;5011933;28;20211;-83
2021/06/23 06:29:55;;;;;;;2.20;0.93;;;13.90;99.90;;;;;;5029078;28;20226;-84
2021/06/23 06:32:21;;;;;;;1.70;1.60;;;13.90;99.90;;;;;;5011176;28;20219;-85
2021/06/23 06:34:47;;;;;;;1.13;1.03;;;14.10;99.90;;;;;;4997670;28;20183;-84
2021/06/23 06:37:12;;;;;;;1.53;1.23;;;14.10;99.90;;;;;;5012783;28;20686;-84
2021/06/23 06:39:38;;;;;;;2.77;0.80;;;14.20;99.90;;;;;;5011045;28;20235;-85
2021/06/23 06:42:04;;;;;;;1.83;1.33;;;14.20;99.90;;;;;;5010786;28;20231;-85
2021/06/23 06:44:32;;;;;;;3.17;1.00;;;14.30;99.90;;;;;;4993478;28;20302;-84
2021/06/23 06:46:58;;;;;;;1.70;1.20;;;14.40;99.90;;;;;;5013179;28;20207;-85
2021/06/23 06:49:28;;;;;;;5.13;1.13;;;14.50;99.90;;;;;;4993064;28;20231;-85
2021/06/23 06:51:59;;;;;;;2.60;1.60;;;14.50;99.90;;;;;;5010589;28;20219;-85
2021/06/23 06:54:25;;;;;;;1.47;1.37;;;14.40;99.90;;;;;;5011457;28;20223;-84
2021/06/23 06:56:52;;;;;;;1.40;1.30;;;14.30;99.90;;;;;;5013368;28;20783;-85
2021/06/23 06:59:20;;;;;;;1.00;1.00;;;14.20;99.90;;;;;;5013560;28;20219;-86
2021/06/23 07:01:47;;;;;;;1.63;1.03;;;14.20;99.90;;;;;;5013983;28;20763;-86
2021/06/23 07:04:15;;;;;;;2.17;1.10;;;14.20;99.90;;;;;;5011678;28;20241;-87
2021/06/23 07:06:41;;;;;;;4.93;1.40;;;14.20;99.90;;;;;;4997066;28;20218;-85
2021/06/23 07:09:07;;;;;;;2.00;1.03;;;14.10;99.90;;;;;;5009609;28;20226;-85
2021/06/23 07:11:33;;;;;;;1.83;1.40;;;14.10;99.90;;;;;;4994158;28;20223;-83
2021/06/23 07:13:58;;;;;;;1.47;1.37;;;14.10;99.90;;;;;;5011392;28;20191;-85
2021/06/23 07:16:24;;;;;;;2.67;1.13;;;14.10;99.90;;;;;;5010411;28;20854;-86
2021/06/23 07:18:50;;;;;;;2.90;1.10;;;14.10;99.90;;;;;;4995346;28;20237;-88
2021/06/23 07:21:19;;;;;;;2.63;1.20;;;14.20;99.90;;;;;;5013437;28;20218;-88
2021/06/23 07:23:46;;;;;;;1.13;1.00;;;14.20;99.90;;;;;;5011511;28;20645;-88
2021/06/23 07:26:13;;;;;;;5.67;1.23;;;14.20;99.90;;;;;;5013328;28;20198;-88
2021/06/23 07:28:46;;;;;;;2.23;1.07;;;14.30;99.90;;;;;;4985078;28;20199;-86
2021/06/23 07:31:14;;;;;;;2.87;1.27;;;14.40;99.90;;;;;;5010694;28;20747;-86
2021/06/23 07:33:49;;;;;;;1.73;1.17;;;14.40;99.90;;;;;;4996682;28;20215;-87
2021/06/23 07:36:34;;;;;;;4.10;1.70;;;14.50;99.90;;;;;;5008468;28;20226;-87
2021/06/23 07:39:01;;;;;;;1.60;1.40;;;14.50;99.90;;;;;;5014423;28;20269;-87
2021/06/23 07:41:27;;;;;;;2.37;1.53;;;14.50;99.90;;;;;;4992937;28;20234;-87
2021/06/23 07:43:52;;;;;;;4.77;1.47;;;14.50;99.90;;;;;;5013546;28;20203;-87
2021/06/23 07:46:18;;;;;;;3.23;1.67;;;14.50;99.90;;;;;;5026633;28;20249;-88
2021/06/23 07:48:48;;;;;;;6.47;1.40;;;14.50;99.90;;;;;;4997963;28;20213;-87
2021/06/23 07:51:17;;;;;;;4.47;1.27;;;14.50;99.90;;;;;;5011077;28;20223;-89
2021/06/23 07:56:27;;;;;;;1.20;1.10;;;14.50;99.90;;;;;;5013294;28;20591;-87
2021/06/23 08:09:40;;;;;;;4.93;1.27;;;14.70;99.90;;;;;;5010581;28;20218;-86
2021/06/23 08:14:38;;;;;;;3.60;1.50;;;14.90;99.90;;;;;;5011706;28;20235;-87
2021/06/23 08:17:04;;;;;;;5.80;1.97;;;14.90;99.90;;;;;;5026924;28;20205;-85
2021/06/23 08:19:30;;;;;;;1.73;1.63;;;15.30;99.90;;;;;;5011352;28;20219;-86
2021/06/23 08:21:56;;;;;;;1.23;1.10;;;15.40;99.90;;;;;;5011092;28;20238;-86
2021/06/23 08:24:22;;;;;;;4.17;1.57;;;15.40;99.90;;;;;;5010668;28;20219;-88
2021/06/23 08:26:48;;;;;;;4.07;1.90;;;15.30;99.90;;;;;;5025273;28;20272;-86
2021/06/23 08:29:14;;;;;;;1.63;1.10;;;15.30;99.90;;;;;;5010481;28;20195;-89
2021/06/23 08:31:39;;;;;;;13.23;1.67;;;15.40;99.90;;;;;;5012966;28;20463;-87
2021/06/23 08:34:05;;;;;;;2.80;1.40;;;15.30;99.90;;;;;;5011470;28;20613;-88
2021/06/23 08:36:31;;;;;;;1.30;1.20;;;15.40;99.90;;;;;;4994457;28;20654;-88
2021/06/23 08:38:57;;;;;;;2.73;1.20;;;15.40;99.90;;;;;;5012965;28;20238;-87
2021/06/23 08:41:26;;;;;;;2.60;1.10;;;15.40;99.90;;;;;;5028695;28;20257;-87
2021/06/23 08:43:54;;;;;;;2.27;1.20;;;15.40;99.90;;;;;;5017322;28;20215;-85
2021/06/23 08:46:20;;;;;;;3.00;1.47;;;15.30;99.90;;;;;;5031720;28;20211;-87
2021/06/23 08:48:46;;;;;;;4.57;1.50;;;15.40;99.90;;;;;;5030453;28;20250;-87
2021/06/23 08:51:13;;;;;;;4.10;1.17;;;15.40;99.90;;;;;;5011981;28;20228;-87
2021/06/23 08:53:38;;;;;;;1.37;1.27;;;15.30;99.90;;;;;;5012437;28;20257;-87
2021/06/23 08:56:06;;;;;;;3.17;1.40;;;15.20;99.90;;;;;;5011931;28;20199;-86
2021/06/23 08:58:32;;;;;;;4.43;1.10;;;15.20;99.90;;;;;;5029058;28;20218;-88
2021/06/23 09:00:59;;;;;;;1.37;1.13;;;15.40;99.90;;;;;;5030251;28;20238;-86
2021/06/23 09:03:25;;;;;;;3.40;1.17;;;15.40;99.90;;;;;;5013493;28;20828;-87
2021/06/23 09:05:59;;;;;;;3.17;1.20;;;15.30;99.90;;;;;;5013494;28;20221;-87
2021/06/23 09:08:33;;;;;;;2.00;1.00;;;15.30;99.90;;;;;;4996766;28;20227;-87
2021/06/23 09:11:01;;;;;;;3.33;1.10;;;15.20;99.90;;;;;;5024111;28;20325;-86
2021/06/23 09:13:28;;;;;;;2.70;1.03;;;15.60;99.90;;;;;;5012973;28;20194;-89
2021/06/23 09:15:57;;;;;;;3.47;1.10;;;15.50;99.90;;;;;;4995437;28;20207;-87
2021/06/23 09:18:25;;;;;;;6.20;1.33;;;15.70;99.90;;;;;;5012538;28;20281;-88
2021/06/23 09:20:58;;;;;;;2.33;1.20;;;15.70;99.90;;;;;;5015763;28;20267;-88
2021/06/23 09:23:45;;;;;;;2.93;0.90;;;15.60;99.90;;;;;;5011994;28;20222;-88
2021/06/23 09:26:20;;;;;;;2.93;1.37;;;15.80;99.90;;;;;;5014458;28;20194;-90
2021/06/23 09:29:04;;;;;;;1.90;1.20;;;16.10;99.90;;;;;;5030323;28;20649;-88
2021/06/23 09:31:53;;;;;;;4.67;1.10;;;16.30;99.90;;;;;;5015162;28;20206;-87
2021/06/23 09:34:25;;;;;;;3.40;2.07;;;16.40;99.90;;;;;;5029582;28;20219;-88
2021/06/23 09:36:52;;;;;;;2.07;1.37;;;16.40;99.90;;;;;;5014130;28;20214;-86
2021/06/23 09:39:20;;;;;;;2.17;0.87;;;16.50;99.90;;;;;;4999661;28;20535;-87
2021/06/23 09:41:46;;;;;;;3.17;1.23;;;16.50;99.90;;;;;;5015654;28;20239;-86
2021/06/23 09:44:12;;;;;;;2.87;1.20;;;16.50;99.90;;;;;;5031290;28;20187;-84
2021/06/23 09:46:39;;;;;;;1.73;1.40;;;16.60;99.90;;;;;;5031932;28;20269;-87
2021/06/23 09:49:05;;;;;;;1.77;1.13;;;16.50;99.90;;;;;;5011361;28;21244;-85
2021/06/23 09:51:47;;;;;;;6.00;1.20;;;16.70;99.90;;;;;;5009133;28;20222;-86
2021/06/23 09:54:15;;;;;;;4.83;1.10;;;16.80;99.90;;;;;;5022640;28;20832;-88
2021/06/23 09:56:44;;;;;;;4.23;1.33;;;16.90;99.90;;;;;;5010626;28;20222;-86
2021/06/23 09:59:23;;;;;;;5.60;0.93;;;17.00;99.90;;;;;;5002540;28;20222;-86
2021/06/23 10:01:49;;;;;;;1.43;1.03;;;16.60;99.90;;;;;;5014889;28;21125;-86
2021/06/23 10:04:15;;;;;;;2.70;1.33;;;16.50;99.90;;;;;;4979509;28;20342;-87
2021/06/23 10:06:46;;;;;;;3.30;1.20;;;16.30;99.90;;;;;;5010984;28;20689;-85
2021/06/23 10:09:21;;;;;;;1.53;1.10;;;16.50;99.90;;;;;;5030001;28;20214;-85
2021/06/23 10:11:50;;;;;;;2.43;1.10;;;16.50;99.90;;;;;;5014285;28;20305;-84
2021/06/23 10:14:16;;;;;;;1.37;0.90;;;16.70;99.90;;;;;;5012707;28;20206;-85
2021/06/23 10:16:42;;;;;;;1.10;1.00;;;16.60;99.90;;;;;;5013462;28;20196;-85
2021/06/23 10:19:08;;;;;;;2.00;1.37;;;16.60;99.90;;;;;;5012972;28;20248;-84
2021/06/23 10:21:36;;;;;;;7.63;1.83;;;16.20;99.90;;;;;;5027713;28;20228;-86
2021/06/23 10:24:04;;;;;;;1.10;1.00;;;16.30;99.90;;;;;;5013199;28;20586;-86
2021/06/23 10:26:30;;;;;;;1.90;1.57;;;16.50;99.90;;;;;;5011720;28;20230;-86
2021/06/23 10:28:57;;;;;;;1.67;1.30;;;16.20;99.90;;;;;;5014949;28;20572;-85
2021/06/23 10:31:25;;;;;;;1.93;1.20;;;16.00;99.90;;;;;;5014588;28;20302;-85
2021/06/23 10:33:51;;;;;;;2.20;1.00;;;16.20;99.90;;;;;;5013373;28;20231;-86
2021/06/23 10:36:17;;;;;;;1.63;1.00;;;16.20;99.90;;;;;;5014333;28;20223;-87
2021/06/23 10:38:46;;;;;;;1.43;1.20;;;16.30;99.90;;;;;;4995908;28;20299;-86
2021/06/23 10:41:12;;;;;;;8.23;1.43;;;16.40;99.90;;;;;;5011746;28;20227;-85
2021/06/23 10:43:38;;;;;;;4.43;1.07;;;16.40;99.90;;;;;;5011982;28;20270;-85
2021/06/23 10:46:04;;;;;;;2.23;1.10;;;16.40;99.90;;;;;;4991212;28;20212;-85
2021/06/23 10:48:49;;;;;;;1.43;1.30;;;16.40;99.90;;;;;;5003659;28;21053;-85
2021/06/23 10:51:28;;;;;;;4.53;1.70;;;16.60;99.90;;;;;;5010284;28;20229;-86
2021/06/23 10:53:54;;;;;;;3.50;1.63;;;16.70;99.90;;;;;;5011048;28;20333;-85
2021/06/23 10:56:39;;;;;;;3.63;1.40;;;16.80;99.90;;;;;;5011821;28;20230;-86
2021/06/23 10:59:30;;;;;;;6.33;1.10;;;16.70;99.90;;;;;;5013055;28;20242;-86
2021/06/23 11:02:37;;;;;;;2.30;1.07;;;16.80;99.90;;;;;;5010207;28;20207;-86
2021/06/23 11:05:05;;;;;;;1.37;1.07;;;16.80;99.90;;;;;;5015516;28;20214;-87
2021/06/23 11:07:37;;;;;;;2.83;0.93;;;16.90;99.90;;;;;;5014307;28;20203;-86
2021/06/23 11:10:18;;;;;;;2.47;1.27;;;16.60;99.90;;;;;;5027510;28;20250;-85
2021/06/23 11:12:48;;;;;;;1.03;1.03;;;16.60;99.90;;;;;;5010061;28;20520;-86
2021/06/23 11:15:19;;;;;;;1.13;1.00;;;16.90;99.90;;;;;;5011014;28;20219;-85
2021/06/23 11:17:50;;;;;;;3.47;1.10;;;17.10;99.90;;;;;;5010333;28;20222;-85
2021/06/23 11:20:18;;;;;;;2.67;1.10;;;17.00;99.90;;;;;;5027450;28;21231;-84
2021/06/23 11:22:49;;;;;;;1.17;1.17;;;17.00;99.90;;;;;;5012932;28;20218;-84
2021/06/23 11:25:33;;;;;;;1.00;1.00;;;16.70;99.90;;;;;;5012403;28;20227;-83
2021/06/23 11:28:08;;;;;;;1.97;1.10;;;16.70;99.90;;;;;;5027978;28;20596;-85
2021/06/23 11:30:36;;;;;;;3.03;1.43;;;16.70;99.90;;;;;;5013291;28;20222;-86
2021/06/23 11:33:27;;;;;;;3.13;1.47;;;17.00;99.90;;;;;;5013161;28;20231;-88
2021/06/23 11:35:54;;;;;;;3.57;1.23;;;16.90;99.90;;;;;;5028657;28;20908;-87
2021/06/23 11:38:21;;;;;;;1.23;1.13;;;16.90;99.90;;;;;;5027183;28;20231;-87
2021/06/23 11:40:47;;;;;;;2.83;1.20;;;17.00;99.90;;;;;;4995472;28;20572;-86
2021/06/23 11:43:13;;;;;;;1.63;1.17;;;17.20;99.90;;;;;;5011825;28;20231;-86
2021/06/23 11:45:39;;;;;;;5.40;1.30;;;17.20;99.90;;;;;;5008767;28;20211;-85
2021/06/23 11:48:05;;;;;;;3.03;1.40;;;17.50;99.90;;;;;;5009301;28;20210;-85
2021/06/23 11:50:31;;;;;;;1.60;1.00;;;17.80;99.90;;;;;;5013395;28;20219;-85
2021/06/23 11:52:57;;;;;;;1.20;1.10;;;17.90;99.90;;;;;;5012763;28;21689;-88
2021/06/23 11:55:25;;;;;;;1.20;1.10;;;17.70;99.90;;;;;;5027582;28;20298;-86
2021/06/23 11:58:01;;;;;;;2.30;1.13;;;17.80;99.90;;;;;;5029049;28;20300;-88
2021/06/23 12:00:29;;;;;;;4.00;1.33;;;18.30;99.90;;;;;;5011464;28;20217;-87
2021/06/23 12:02:58;;;;;;;2.70;1.40;;;18.80;99.90;;;;;;5011423;28;20219;-87
2021/06/23 12:05:24;;;;;;;1.13;1.03;;;18.80;99.90;;;;;;5009754;28;20230;-86
2021/06/23 12:07:51;;;;;;;2.87;1.20;;;18.70;99.90;;;;;;5025922;28;20254;-85
2021/06/23 12:10:18;;;;;;;1.73;1.30;;;19.20;99.90;;;;;;4995238;28;20211;-86
2021/06/23 12:12:45;;;;;;;1.83;1.73;;;19.50;99.90;;;;;;5012554;28;20211;-85
2021/06/23 12:15:12;;;;;;;4.37;1.53;;;19.10;99.90;;;;;;5013352;28;20226;-85
2021/06/23 12:17:38;;;;;;;1.03;1.00;;;19.10;99.90;;;;;;5015759;28;20210;-85
2021/06/23 12:20:06;;;;;;;2.00;1.50;;;19.00;99.90;;;;;;5030162;28;20273;-85
2021/06/23 12:22:32;;;;;;;1.47;1.07;;;18.90;99.90;;;;;;5014902;28;20214;-86
2021/06/23 12:25:00;;;;;;;3.33;1.30;;;19.20;99.90;;;;;;5009568;28;20223;-85
2021/06/23 12:27:25;;;;;;;1.20;1.10;;;19.00;99.90;;;;;;5011615;28;20289;-85
2021/06/23 12:29:51;;;;;;;1.50;1.40;;;19.00;99.90;;;;;;5023973;28;20537;-86
2021/06/23 12:32:17;;;;;;;3.63;1.20;;;19.10;99.90;;;;;;4982444;28;20631;-87
2021/06/23 12:34:43;;;;;;;0.77;0.77;;;18.90;99.90;;;;;;5014757;28;20631;-86
2021/06/23 12:37:08;;;;;;;4.17;1.17;;;18.70;99.90;;;;;;5013090;28;20218;-85
2021/06/23 12:39:34;;;;;;;4.07;1.60;;;18.10;99.90;;;;;;5013925;28;20222;-85
2021/06/23 12:42:00;;;;;;;2.23;1.00;;;18.00;99.90;;;;;;4998564;28;20815;-85
2021/06/23 12:44:26;;;;;;;1.33;1.10;;;17.80;99.90;;;;;;5012819;28;20219;-85
2021/06/23 12:46:52;;;;;;;2.53;1.17;;;17.90;99.90;;;;;;5014466;28;20202;-86
2021/06/23 12:49:18;;;;;;;1.03;1.00;;;18.30;99.90;;;;;;5015917;28;20288;-85
2021/06/23 12:51:45;;;;;;;3.77;1.20;;;18.00;99.90;;;;;;4946361;28;20202;-86
2021/06/23 12:54:11;;;;;;;3.03;1.27;;;18.00;99.90;;;;;;5029030;28;20219;-86
2021/06/23 12:56:38;;;;;;;2.63;1.73;;;18.20;99.90;;;;;;5017813;28;20221;-86
2021/06/23 12:59:04;;;;;;;4.07;1.77;;;18.40;99.90;;;;;;5016327;28;21093;-86
2021/06/23 13:01:30;;;;;;;1.20;1.10;;;18.80;99.90;;;;;;5015927;28;20195;-86
2021/06/23 13:03:56;;;;;;;1.57;1.23;;;18.60;99.90;;;;;;5016416;28;20234;-86
2021/06/23 13:06:21;;;;;;;2.97;1.40;;;18.20;99.90;;;;;;5031820;28;20891;-85
2021/06/23 13:08:47;;;;;;;2.27;1.80;;;17.70;99.90;;;;;;5012041;28;20214;-85